createdAt,value
2017-08-21T00:00:11.591Z,14.9
2017-08-21T00:01:13.256Z,17.4
2017-08-21T00:02:14.913Z,17.7
2017-08-21T00:03:16.572Z,15.4
2017-08-21T00:04:18.224Z,16.8
2017-08-21T00:05:19.877Z,15.1
2017-08-21T00:06:21.560Z,14.0
2017-08-21T00:07:23.202Z,16.2
2017-08-21T00:08:24.856Z,17.2
2017-08-21T00:09:26.508Z,16.7
2017-08-21T00:10:28.164Z,16.8
2017-08-21T00:11:29.821Z,18.9
2017-08-21T00:12:31.489Z,13.7
2017-08-21T00:13:33.126Z,18.7
2017-08-21T00:14:34.794Z,14.8
2017-08-21T00:15:36.447Z,16.6
2017-08-21T00:16:38.106Z,15.5
2017-08-21T00:17:39.793Z,16.9
2017-08-21T00:18:41.428Z,16.8
2017-08-21T00:19:43.083Z,13.9
2017-08-21T00:20:44.749Z,18.0
2017-08-21T00:21:46.402Z,16.6
2017-08-21T00:22:48.057Z,20.0
2017-08-21T00:23:49.724Z,14.1
2017-08-21T00:24:51.384Z,13.6
2017-08-21T00:25:53.040Z,17.6
2017-08-21T00:26:54.731Z,16.6
2017-08-21T00:27:56.370Z,14.5
2017-08-21T00:28:58.040Z,17.1
2017-08-21T00:29:59.694Z,15.0
2017-08-21T00:31:01.354Z,14.7
2017-08-21T00:32:03.011Z,16.7
2017-08-21T00:33:04.670Z,17.0
2017-08-21T00:34:06.325Z,14.3
2017-08-21T00:35:07.994Z,15.5
2017-08-21T00:36:09.657Z,16.0
2017-08-21T00:37:11.313Z,14.8
2017-08-21T00:38:12.965Z,15.6
2017-08-21T00:39:14.637Z,12.3
2017-08-21T00:40:16.286Z,15.5
2017-08-21T00:41:17.937Z,15.2
2017-08-21T00:42:19.609Z,16.7
2017-08-21T00:43:21.261Z,23.4
2017-08-21T00:44:22.922Z,12.3
2017-08-21T00:45:24.574Z,16.1
2017-08-21T00:46:26.245Z,19.0
2017-08-21T00:47:27.892Z,14.8
2017-08-21T00:48:29.552Z,15.9
2017-08-21T00:49:31.212Z,16.3
2017-08-21T00:50:32.875Z,13.5
2017-08-21T00:51:34.532Z,15.4
2017-08-21T00:52:36.179Z,13.0
2017-08-21T00:53:37.838Z,17.2
2017-08-21T00:54:39.518Z,16.2
2017-08-21T00:55:41.174Z,17.5
2017-08-21T00:56:42.845Z,15.3
2017-08-21T00:57:44.500Z,15.7
2017-08-21T00:58:46.161Z,14.7
2017-08-21T00:59:47.815Z,14.2
2017-08-21T01:00:49.473Z,14.9
2017-08-21T01:01:51.125Z,20.6
2017-08-21T01:02:52.772Z,16.5
2017-08-21T01:03:54.434Z,13.1
2017-08-21T01:04:56.094Z,19.1
2017-08-21T01:05:57.748Z,16.1
2017-08-21T01:06:59.402Z,13.7
2017-08-21T01:08:01.061Z,14.9
2017-08-21T01:09:02.724Z,18.1
2017-08-21T01:10:04.392Z,20.5
2017-08-21T01:11:06.050Z,15.9
2017-08-21T01:12:07.698Z,15.7
2017-08-21T01:13:09.358Z,18.5
2017-08-21T01:14:11.012Z,15.3
2017-08-21T01:15:12.667Z,15.7
2017-08-21T01:16:14.318Z,13.3
2017-08-21T01:17:15.978Z,15.1
2017-08-21T01:18:17.638Z,12.3
2017-08-21T01:19:19.297Z,16.3
2017-08-21T01:20:20.963Z,13.4
2017-08-21T01:21:22.619Z,15.9
2017-08-21T01:22:24.280Z,12.7
2017-08-21T01:23:25.943Z,16.1
2017-08-21T01:24:27.588Z,15.7
2017-08-21T01:25:29.255Z,13.5
2017-08-21T01:26:30.901Z,16.0
2017-08-21T01:27:32.558Z,15.5
2017-08-21T01:28:34.201Z,17.0
2017-08-21T01:29:35.863Z,15.6
2017-08-21T01:30:37.516Z,15.4
2017-08-21T01:31:39.168Z,13.8
2017-08-21T01:32:40.823Z,15.1
2017-08-21T01:33:42.483Z,16.9
2017-08-21T01:34:44.141Z,14.0
2017-08-21T01:35:45.795Z,15.1
2017-08-21T01:36:47.449Z,14.9
2017-08-21T01:37:49.105Z,15.0
2017-08-21T01:38:50.765Z,14.2
2017-08-21T01:39:52.419Z,14.4
2017-08-21T01:40:54.074Z,13.9
2017-08-21T01:41:55.724Z,15.3
2017-08-21T01:42:57.384Z,13.3
2017-08-21T01:43:59.044Z,16.9
2017-08-21T01:45:00.727Z,12.6
2017-08-21T01:46:02.379Z,15.9
2017-08-21T01:47:04.046Z,17.5
2017-08-21T01:48:05.695Z,15.5
2017-08-21T01:49:07.361Z,14.0
2017-08-21T01:50:09.012Z,16.1
2017-08-21T01:51:10.665Z,13.4
2017-08-21T01:52:12.352Z,13.4
2017-08-21T01:53:13.985Z,17.8
2017-08-21T01:54:15.643Z,14.3
2017-08-21T01:55:17.303Z,17.1
2017-08-21T02:01:54.728Z,18.1
2017-08-21T02:02:56.382Z,18.1
2017-08-21T02:03:58.036Z,14.1
2017-08-21T02:04:59.692Z,20.1
2017-08-21T02:06:01.351Z,14.9
2017-08-21T02:07:03.014Z,17.1
2017-08-21T02:08:04.664Z,18.0
2017-08-21T02:09:06.321Z,17.3
2017-08-21T02:10:07.969Z,15.4
2017-08-21T02:11:09.625Z,16.9
2017-08-21T02:12:11.282Z,18.0
2017-08-21T02:13:12.931Z,14.3
2017-08-21T02:14:14.580Z,15.1
2017-08-21T02:15:16.262Z,17.1
2017-08-21T02:16:17.925Z,21.3
2017-08-21T02:17:19.622Z,16.5
2017-08-21T02:18:21.280Z,16.1
2017-08-21T02:19:22.943Z,15.5
2017-08-21T02:20:24.593Z,16.7
2017-08-21T02:21:26.251Z,24.5
2017-08-21T02:22:27.922Z,16.1
2017-08-21T02:23:29.581Z,17.0
2017-08-21T02:24:31.241Z,15.0
2017-08-21T02:25:32.907Z,15.6
2017-08-21T02:26:34.567Z,22.4
2017-08-21T02:27:36.235Z,16.0
2017-08-21T02:28:37.894Z,19.1
2017-08-21T02:29:39.554Z,16.5
2017-08-21T02:30:41.225Z,20.1
2017-08-21T02:31:42.876Z,16.5
2017-08-21T02:32:44.544Z,17.8
2017-08-21T02:33:46.205Z,15.9
2017-08-21T02:34:47.866Z,19.7
2017-08-21T02:35:49.517Z,15.9
2017-08-21T02:36:51.171Z,21.0
2017-08-21T02:37:52.835Z,15.8
2017-08-21T02:38:54.481Z,20.3
2017-08-21T02:39:56.146Z,16.4
2017-08-21T02:40:57.822Z,16.4
2017-08-21T02:41:59.475Z,18.4
2017-08-21T02:43:01.128Z,16.0
2017-08-21T02:44:02.789Z,16.1
2017-08-21T02:45:04.454Z,23.1
2017-08-21T02:46:06.117Z,19.8
2017-08-21T02:47:07.774Z,18.9
2017-08-21T02:48:09.427Z,21.7
2017-08-21T02:49:11.080Z,21.6
2017-08-21T02:50:12.747Z,20.1
2017-08-21T02:51:14.408Z,18.6
2017-08-21T02:52:16.071Z,16.8
2017-08-21T02:53:17.725Z,16.1
2017-08-21T02:54:19.382Z,17.7
2017-08-21T02:55:21.035Z,17.3
2017-08-21T02:56:22.689Z,17.0
2017-08-21T02:57:24.353Z,18.7
2017-08-21T02:58:26.011Z,19.2
2017-08-21T02:59:27.676Z,20.6
2017-08-21T03:00:29.338Z,17.9
2017-08-21T03:01:30.995Z,20.8
2017-08-21T03:02:32.660Z,22.5
2017-08-21T03:03:34.320Z,20.5
2017-08-21T03:04:36.001Z,22.5
2017-08-21T03:05:37.645Z,21.3
2017-08-21T03:06:39.300Z,19.6
2017-08-21T03:07:40.959Z,21.6
2017-08-21T03:08:42.621Z,27.7
2017-08-21T03:09:44.309Z,18.6
2017-08-21T03:10:45.950Z,30.5
2017-08-21T03:11:47.635Z,19.2
2017-08-21T03:12:49.295Z,21.0
2017-08-21T03:13:50.961Z,20.5
2017-08-21T03:14:52.708Z,20.2
2017-08-21T03:15:54.361Z,17.0
2017-08-21T03:16:56.017Z,20.0
2017-08-21T03:17:57.671Z,20.9
2017-08-21T03:18:59.331Z,18.3
2017-08-21T03:20:00.993Z,18.5
2017-08-21T03:21:02.652Z,21.1
2017-08-21T03:22:04.306Z,19.6
2017-08-21T03:23:05.964Z,18.6
2017-08-21T03:24:07.627Z,17.6
2017-08-21T03:25:09.278Z,18.7
2017-08-21T03:26:10.948Z,23.3
2017-08-21T03:27:12.608Z,19.5
2017-08-21T03:28:14.274Z,17.3
2017-08-21T03:29:15.927Z,18.1
2017-08-21T03:30:17.602Z,21.9
2017-08-21T03:31:19.248Z,19.7
2017-08-21T03:32:20.898Z,20.5
2017-08-21T03:33:22.573Z,19.8
2017-08-21T03:34:24.236Z,19.9
2017-08-21T03:35:25.892Z,21.2
2017-08-21T03:36:27.549Z,26.8
2017-08-21T03:37:29.216Z,20.0
2017-08-21T03:38:30.870Z,26.0
2017-08-21T03:39:32.541Z,18.6
2017-08-21T03:40:34.198Z,19.7
2017-08-21T03:41:35.858Z,20.7
2017-08-21T03:42:37.514Z,26.0
2017-08-21T03:43:39.177Z,21.4
2017-08-21T03:44:40.827Z,25.4
2017-08-21T03:45:42.484Z,23.6
2017-08-21T03:46:44.135Z,22.7
2017-08-21T03:47:45.797Z,20.6
2017-08-21T03:48:47.460Z,21.7
2017-08-21T03:49:49.114Z,18.6
2017-08-21T03:50:50.778Z,17.4
2017-08-21T03:51:52.425Z,14.6
2017-08-21T03:52:54.662Z,18.8
2017-08-21T03:53:56.321Z,17.7
2017-08-21T03:54:57.978Z,19.1
2017-08-21T03:55:59.637Z,19.5
2017-08-21T03:57:01.296Z,18.6
2017-08-21T03:58:02.954Z,16.3
2017-08-21T03:59:04.613Z,19.3
2017-08-21T04:00:06.280Z,16.0
2017-08-21T04:01:07.944Z,17.2
2017-08-21T04:02:09.604Z,17.2
2017-08-21T04:03:11.278Z,21.9
2017-08-21T04:04:12.935Z,22.6
2017-08-21T04:05:14.592Z,21.9
2017-08-21T04:06:16.260Z,22.9
2017-08-21T04:07:17.922Z,26.1
2017-08-21T04:08:19.583Z,26.6
2017-08-21T04:09:21.241Z,30.1
2017-08-21T04:10:22.893Z,35.0
2017-08-21T04:11:24.551Z,30.4
2017-08-21T04:12:26.212Z,30.0
2017-08-21T04:13:27.877Z,30.1
2017-08-21T04:14:29.536Z,27.2
2017-08-21T04:15:31.201Z,32.5
2017-08-21T04:16:32.864Z,30.7
2017-08-21T04:17:34.526Z,40.1
2017-08-21T04:18:36.202Z,41.3
2017-08-21T04:19:37.854Z,44.5
2017-08-21T04:20:39.518Z,58.5
2017-08-21T04:21:41.173Z,61.3
2017-08-21T04:22:42.827Z,52.8
2017-08-21T04:23:44.501Z,55.2
2017-08-21T04:24:46.166Z,86.3
2017-08-21T04:25:47.839Z,77.5
2017-08-21T04:26:49.623Z,57.6
2017-08-21T04:27:51.291Z,74.3
2017-08-21T04:28:52.953Z,56.3
2017-08-21T04:29:54.619Z,70.6
2017-08-21T04:30:56.282Z,99.0
2017-08-21T04:31:57.956Z,153.1
2017-08-21T04:32:59.621Z,123.8
2017-08-21T04:34:01.275Z,122.7
2017-08-21T04:35:02.944Z,130.8
2017-08-21T04:36:04.609Z,165.2
2017-08-21T04:37:06.277Z,76.2
2017-08-21T04:38:07.939Z,95.6
2017-08-21T04:39:09.614Z,153.1
2017-08-21T04:40:11.282Z,101.5
2017-08-21T04:41:12.940Z,104.0
2017-08-21T04:42:14.604Z,175.9
2017-08-21T04:43:16.271Z,80.4
2017-08-21T04:44:17.938Z,116.1
2017-08-21T04:45:19.618Z,198.4
2017-08-21T04:46:21.284Z,174.7
2017-08-21T04:47:22.943Z,116.1
2017-08-21T04:48:24.615Z,94.5
2017-08-21T04:49:26.280Z,138.1
2017-08-21T04:50:27.948Z,89.8
2017-08-21T04:51:29.612Z,98.8
2017-08-21T04:52:31.277Z,60.1
2017-08-21T04:53:32.942Z,56.7
2017-08-21T04:54:34.613Z,53.4
2017-08-21T04:55:36.276Z,71.7
2017-08-21T04:56:37.936Z,59.0
2017-08-21T04:57:39.597Z,52.1
2017-08-21T04:58:41.269Z,46.8
2017-08-21T04:59:42.934Z,55.5
2017-08-21T05:00:44.603Z,39.0
2017-08-21T05:01:46.270Z,42.5
2017-08-21T05:02:47.925Z,52.1
2017-08-21T05:03:49.595Z,41.6
2017-08-21T05:04:51.262Z,43.4
2017-08-21T05:05:52.934Z,52.9
2017-08-21T05:06:54.592Z,43.7
2017-08-21T05:07:56.252Z,109.1
2017-08-21T05:08:57.963Z,66.6
2017-08-21T05:09:59.625Z,85.4
2017-08-21T05:11:01.283Z,109.3
2017-08-21T05:12:02.956Z,95.4
2017-08-21T05:13:04.618Z,162.5
2017-08-21T05:14:06.292Z,105.7
2017-08-21T05:15:07.960Z,85.1
2017-08-21T05:16:09.628Z,119.7
2017-08-21T05:17:11.293Z,56.0
2017-08-21T05:18:12.958Z,87.9
2017-08-21T05:19:14.622Z,115.6
2017-08-21T05:20:16.330Z,185.6
2017-08-21T05:21:18.034Z,128.1
2017-08-21T05:22:19.695Z,95.2
2017-08-21T05:23:21.365Z,65.9
2017-08-21T05:24:23.028Z,102.6
2017-08-21T05:25:24.696Z,84.0
2017-08-21T05:26:26.358Z,54.2
2017-08-21T05:27:28.021Z,71.8
2017-08-21T05:28:29.685Z,94.5
2017-08-21T05:29:31.352Z,74.8
2017-08-21T05:30:33.020Z,89.1
2017-08-21T05:31:34.724Z,53.4
2017-08-21T05:32:36.384Z,100.2
2017-08-21T05:33:38.047Z,53.3
2017-08-21T05:34:39.710Z,72.9
2017-08-21T05:35:41.385Z,224.7
2017-08-21T05:36:43.043Z,155.8
2017-08-21T05:37:44.720Z,80.3
2017-08-21T05:38:46.386Z,122.1
2017-08-21T05:39:48.055Z,104.2
2017-08-21T05:40:49.723Z,86.3
2017-08-21T05:41:51.466Z,88.8
2017-08-21T05:42:53.141Z,73.0
2017-08-21T05:43:54.803Z,119.3
2017-08-21T05:44:56.468Z,57.4
2017-08-21T05:46:01.226Z,55.7
2017-08-21T05:47:02.886Z,76.7
2017-08-21T05:48:04.552Z,56.6
2017-08-21T05:49:06.209Z,58.5
2017-08-21T05:50:07.883Z,96.7
2017-08-21T05:51:10.020Z,157.0
2017-08-21T05:52:11.636Z,72.5
2017-08-21T05:53:13.350Z,110.5
2017-08-21T05:54:15.017Z,172.1
2017-08-21T05:55:16.681Z,90.5
2017-08-21T06:01:30.584Z,151.4
2017-08-21T06:02:32.249Z,86.2
2017-08-21T06:04:24.038Z,49.0
2017-08-21T06:05:25.693Z,66.6
2017-08-21T06:06:27.358Z,66.5
2017-08-21T06:07:29.033Z,39.9
2017-08-21T06:08:30.696Z,45.2
2017-08-21T06:09:32.363Z,31.6
2017-08-21T06:10:34.040Z,33.8
2017-08-21T06:11:35.730Z,52.5
2017-08-21T06:12:37.397Z,30.1
2017-08-21T06:13:39.053Z,33.0
2017-08-21T06:14:40.722Z,21.5
2017-08-21T06:15:42.386Z,26.1
2017-08-21T06:16:44.070Z,20.2
2017-08-21T06:17:45.739Z,24.7
2017-08-21T06:18:47.422Z,23.4
2017-08-21T06:19:49.075Z,41.2
2017-08-21T06:20:50.735Z,37.2
2017-08-21T06:21:52.404Z,40.4
2017-08-21T06:22:54.066Z,46.9
2017-08-21T06:23:55.742Z,23.7
2017-08-21T06:24:57.405Z,17.1
2017-08-21T06:25:59.075Z,44.4
2017-08-21T06:27:00.741Z,39.8
2017-08-21T06:28:02.411Z,51.1
2017-08-21T06:29:04.080Z,26.1
2017-08-21T06:30:05.749Z,28.7
2017-08-21T06:31:07.416Z,32.7
2017-08-21T06:32:09.072Z,33.4
2017-08-21T06:33:10.739Z,29.6
2017-08-21T06:34:12.412Z,27.9
2017-08-21T06:35:14.075Z,25.2
2017-08-21T06:36:15.747Z,23.7
2017-08-21T06:37:17.411Z,21.8
2017-08-21T06:38:19.112Z,31.4
2017-08-21T06:39:20.781Z,22.6
2017-08-21T06:40:22.447Z,19.5
2017-08-21T06:41:25.036Z,17.9
2017-08-21T06:42:26.702Z,15.1
2017-08-21T06:43:28.378Z,16.0
2017-08-21T06:44:30.049Z,15.9
2017-08-21T06:45:31.722Z,12.1
2017-08-21T06:46:33.387Z,14.7
2017-08-21T06:47:35.061Z,13.8
2017-08-21T06:48:36.753Z,14.9
2017-08-21T06:49:38.427Z,19.2
2017-08-21T06:50:40.111Z,15.9
2017-08-21T06:51:41.795Z,13.1
2017-08-21T06:52:43.465Z,15.9
2017-08-21T06:53:45.139Z,14.7
2017-08-21T06:54:46.812Z,14.6
2017-08-21T06:55:48.479Z,14.0
2017-08-21T06:56:50.136Z,11.7
2017-08-21T06:57:51.815Z,11.6
2017-08-21T06:58:53.488Z,12.6
2017-08-21T06:59:55.175Z,13.0
2017-08-21T07:00:56.844Z,11.4
2017-08-21T07:01:58.501Z,9.2
2017-08-21T07:03:00.175Z,9.1
2017-08-21T07:04:01.838Z,12.1
2017-08-21T07:05:03.504Z,10.0
2017-08-21T07:06:05.238Z,8.7
2017-08-21T07:07:06.902Z,8.4
2017-08-21T07:08:08.582Z,8.6
2017-08-21T07:09:10.257Z,11.0
2017-08-21T07:10:11.926Z,9.1
2017-08-21T07:11:13.588Z,8.3
2017-08-21T07:12:15.258Z,10.6
2017-08-21T07:13:16.933Z,10.5
2017-08-21T07:14:18.633Z,9.2
2017-08-21T07:15:20.303Z,9.0
2017-08-21T07:16:21.979Z,8.5
2017-08-21T07:17:23.648Z,9.9
2017-08-21T07:18:25.322Z,7.7
2017-08-21T07:19:27.013Z,9.7
2017-08-21T07:20:28.685Z,10.0
2017-08-21T07:21:30.351Z,10.8
2017-08-21T07:22:32.030Z,9.6
2017-08-21T07:23:33.701Z,7.3
2017-08-21T07:24:35.363Z,8.8
2017-08-21T07:25:37.046Z,9.7
2017-08-21T07:26:38.721Z,12.1
2017-08-21T07:27:40.395Z,8.5
2017-08-21T07:28:42.066Z,9.0
2017-08-21T07:29:43.738Z,6.4
2017-08-21T07:30:45.409Z,7.3
2017-08-21T07:31:47.075Z,8.1
2017-08-21T07:32:48.748Z,7.7
2017-08-21T07:33:50.418Z,9.0
2017-08-21T07:34:52.090Z,8.3
2017-08-21T07:35:53.763Z,7.2
2017-08-21T07:36:55.439Z,9.2
2017-08-21T07:37:57.119Z,6.9
2017-08-21T07:38:58.792Z,8.1
2017-08-21T07:40:00.467Z,9.7
2017-08-21T07:41:02.144Z,8.2
2017-08-21T07:42:03.817Z,9.9
2017-08-21T07:43:05.496Z,10.4
2017-08-21T07:44:07.168Z,9.6
2017-08-21T07:45:08.845Z,8.2
2017-08-21T07:46:10.518Z,8.5
2017-08-21T07:47:12.184Z,12.3
2017-08-21T07:48:13.861Z,9.0
2017-08-21T07:49:15.532Z,10.1
2017-08-21T07:50:17.222Z,11.1
2017-08-21T07:51:19.050Z,13.4
2017-08-21T07:52:20.540Z,9.3
2017-08-21T07:53:22.217Z,9.5
2017-08-21T07:54:23.888Z,12.8
2017-08-21T07:55:25.582Z,9.9
2017-08-21T07:56:27.257Z,11.0
2017-08-21T07:57:28.931Z,7.8
2017-08-21T07:58:30.605Z,9.1
2017-08-21T07:59:32.284Z,8.5
2017-08-21T08:00:33.960Z,9.8
2017-08-21T08:01:35.636Z,8.5
2017-08-21T08:02:37.303Z,9.6
2017-08-21T08:03:38.972Z,7.4
2017-08-21T08:04:40.647Z,9.2
2017-08-21T08:05:42.346Z,11.8
2017-08-21T08:06:44.024Z,9.7
2017-08-21T08:07:45.698Z,10.6
2017-08-21T08:08:47.385Z,10.3
2017-08-21T08:09:49.063Z,10.7
2017-08-21T08:10:50.738Z,9.4
2017-08-21T08:11:52.418Z,10.5
2017-08-21T08:12:54.104Z,7.1
2017-08-21T08:13:55.787Z,9.4
2017-08-21T08:14:57.474Z,7.5
2017-08-21T08:15:59.144Z,9.2
2017-08-21T08:17:00.844Z,10.0
2017-08-21T08:18:02.528Z,12.6
2017-08-21T08:19:04.201Z,7.3
2017-08-21T08:20:05.876Z,6.1
2017-08-21T08:21:07.560Z,9.7
2017-08-21T08:22:09.241Z,9.1
2017-08-21T08:23:10.926Z,9.5
2017-08-21T08:24:12.594Z,7.4
2017-08-21T08:25:14.304Z,6.2
2017-08-21T08:26:15.963Z,9.3
2017-08-21T08:27:17.735Z,8.5
2017-08-21T08:28:19.424Z,8.6
2017-08-21T08:29:21.101Z,7.3
2017-08-21T08:30:22.813Z,6.6
2017-08-21T08:31:24.495Z,6.9
2017-08-21T08:32:26.169Z,9.3
2017-08-21T08:33:27.841Z,7.3
2017-08-21T08:34:29.518Z,9.4
2017-08-21T08:35:31.217Z,5.8
2017-08-21T08:36:33.016Z,6.3
2017-08-21T08:37:34.693Z,7.3
2017-08-21T08:38:36.381Z,5.4
2017-08-21T08:39:38.063Z,7.8
2017-08-21T08:40:39.794Z,7.8
2017-08-21T08:41:41.467Z,4.9
2017-08-21T08:42:43.201Z,6.3
2017-08-21T08:43:44.877Z,3.8
2017-08-21T08:44:46.543Z,5.6
2017-08-21T08:45:48.227Z,5.4
2017-08-21T08:46:49.907Z,3.6
2017-08-21T08:47:51.593Z,4.7
2017-08-21T08:48:53.276Z,5.9
2017-08-21T08:49:54.947Z,6.1
2017-08-21T08:50:56.623Z,5.4
2017-08-21T08:51:58.297Z,5.3
2017-08-21T08:52:59.981Z,6.4
2017-08-21T08:54:01.650Z,4.0
2017-08-21T08:55:03.327Z,4.9
2017-08-21T08:56:05.008Z,5.5
2017-08-21T08:57:06.683Z,4.8
2017-08-21T08:58:08.355Z,4.1
2017-08-21T08:59:10.036Z,3.9
2017-08-21T09:00:11.710Z,5.1
2017-08-21T09:01:13.388Z,5.9
2017-08-21T09:02:15.063Z,5.6
2017-08-21T09:03:16.742Z,3.2
2017-08-21T09:04:18.432Z,4.7
2017-08-21T09:05:20.119Z,4.6
2017-08-21T09:06:21.805Z,4.3
2017-08-21T09:07:23.471Z,5.0
2017-08-21T09:08:25.148Z,4.6
2017-08-21T09:09:26.834Z,4.4
2017-08-21T09:10:28.518Z,4.9
2017-08-21T09:11:30.205Z,3.2
2017-08-21T09:12:31.878Z,5.7
2017-08-21T09:13:33.559Z,4.8
2017-08-21T09:14:35.239Z,3.7
2017-08-21T09:15:36.932Z,3.6
2017-08-21T09:16:38.616Z,3.7
2017-08-21T09:17:40.320Z,3.7
2017-08-21T09:18:42.001Z,4.2
2017-08-21T09:19:43.682Z,6.5
2017-08-21T09:20:45.367Z,6.6
2017-08-21T09:21:47.051Z,4.4
2017-08-21T09:22:48.731Z,5.4
2017-08-21T09:23:50.424Z,5.8
2017-08-21T09:24:52.107Z,5.2
2017-08-21T09:25:53.848Z,4.5
2017-08-21T09:26:55.524Z,5.3
2017-08-21T09:27:57.213Z,4.1
2017-08-21T09:28:58.891Z,5.5
2017-08-21T09:30:00.577Z,5.8
2017-08-21T09:31:02.256Z,4.5
2017-08-21T09:32:03.937Z,3.9
2017-08-21T09:33:05.625Z,3.8
2017-08-21T09:34:07.306Z,4.2
2017-08-21T09:35:08.994Z,4.0
2017-08-21T09:36:10.676Z,4.7
2017-08-21T09:37:12.362Z,5.4
2017-08-21T09:38:14.053Z,5.2
2017-08-21T09:39:15.732Z,4.5
2017-08-21T09:40:17.408Z,5.0
2017-08-21T09:41:19.097Z,5.2
2017-08-21T09:42:20.781Z,3.0
2017-08-21T09:43:22.458Z,5.7
2017-08-21T09:44:24.145Z,5.2
2017-08-21T09:45:25.823Z,3.5
2017-08-21T09:46:27.502Z,5.5
2017-08-21T09:47:29.189Z,5.5
2017-08-21T09:48:30.863Z,4.2
2017-08-21T09:49:32.550Z,6.3
2017-08-21T09:50:34.230Z,5.5
2017-08-21T09:51:35.923Z,3.4
2017-08-21T09:52:37.621Z,3.6
2017-08-21T09:53:39.301Z,3.7
2017-08-21T09:54:40.983Z,4.7
2017-08-21T10:01:11.260Z,5.8
2017-08-21T10:02:12.986Z,4.1
2017-08-21T10:04:04.865Z,7.3
2017-08-21T10:05:06.554Z,3.9
2017-08-21T10:06:08.248Z,4.4
2017-08-21T10:07:09.930Z,6.2
2017-08-21T10:08:11.611Z,6.2
2017-08-21T10:09:13.290Z,6.4
2017-08-21T10:10:14.982Z,5.7
2017-08-21T10:11:16.683Z,3.0
2017-08-21T10:12:18.363Z,3.4
2017-08-21T10:13:20.034Z,5.0
2017-08-21T10:14:23.330Z,4.4
2017-08-21T10:15:25.621Z,4.7
2017-08-21T10:16:27.305Z,4.9
2017-08-21T10:17:28.990Z,4.4
2017-08-21T10:18:30.687Z,5.6
2017-08-21T10:19:32.358Z,4.6
2017-08-21T10:20:34.042Z,4.6
2017-08-21T10:21:35.753Z,3.6
2017-08-21T10:22:37.415Z,4.0
2017-08-21T10:23:39.154Z,3.3
2017-08-21T10:24:42.429Z,4.6
2017-08-21T10:25:44.115Z,5.0
2017-08-21T10:26:50.954Z,3.7
2017-08-21T10:27:52.645Z,3.9
2017-08-21T10:28:54.330Z,4.7
2017-08-21T10:29:56.017Z,4.7
2017-08-21T10:30:57.708Z,6.1
2017-08-21T10:31:59.374Z,5.1
2017-08-21T10:33:01.062Z,6.6
2017-08-21T10:34:02.744Z,9.0
2017-08-21T10:35:04.414Z,5.1
2017-08-21T10:36:06.097Z,5.3
2017-08-21T10:37:07.783Z,5.6
2017-08-21T10:38:09.466Z,4.9
2017-08-21T10:39:11.153Z,4.9
2017-08-21T10:40:12.843Z,5.2
2017-08-21T10:41:14.533Z,5.3
2017-08-21T10:42:16.205Z,4.9
2017-08-21T10:43:17.890Z,3.6
2017-08-21T10:44:19.569Z,3.4
2017-08-21T10:45:21.252Z,7.4
2017-08-21T10:46:22.928Z,6.9
2017-08-21T10:47:24.620Z,4.1
2017-08-21T10:48:26.299Z,5.7
2017-08-21T10:49:28.003Z,4.9
2017-08-21T10:50:29.694Z,5.6
2017-08-21T10:51:31.368Z,5.7
2017-08-21T10:52:33.044Z,5.8
2017-08-21T10:53:34.724Z,4.0
2017-08-21T10:54:36.404Z,4.0
2017-08-21T10:55:38.168Z,5.6
2017-08-21T10:56:39.896Z,4.2
2017-08-21T10:57:41.575Z,3.6
2017-08-21T10:58:43.259Z,3.6
2017-08-21T10:59:44.938Z,3.7
2017-08-21T11:00:46.626Z,3.5
2017-08-21T11:01:48.321Z,5.3
2017-08-21T11:02:50.026Z,6.6
2017-08-21T11:03:51.694Z,3.3
2017-08-21T11:04:53.384Z,3.0
2017-08-21T11:05:55.069Z,6.6
2017-08-21T11:06:56.748Z,3.8
2017-08-21T11:07:58.426Z,5.4
2017-08-21T11:09:00.112Z,4.8
2017-08-21T11:10:01.772Z,4.7
2017-08-21T11:11:03.455Z,4.6
2017-08-21T11:12:05.130Z,4.4
2017-08-21T11:13:06.818Z,5.0
2017-08-21T11:14:08.510Z,4.4
2017-08-21T11:15:10.182Z,4.2
2017-08-21T11:16:12.062Z,3.2
2017-08-21T11:17:13.898Z,3.3
2017-08-21T11:18:15.584Z,4.5
2017-08-21T11:19:17.266Z,2.5
2017-08-21T11:20:18.939Z,2.0
2017-08-21T11:21:21.682Z,3.9
2017-08-21T11:22:23.368Z,3.5
2017-08-21T11:23:25.055Z,5.6
2017-08-21T11:24:26.735Z,3.7
2017-08-21T11:25:29.987Z,6.6
2017-08-21T11:26:33.940Z,3.8
2017-08-21T11:27:36.447Z,4.8
2017-08-21T11:28:38.126Z,4.0
2017-08-21T11:29:41.950Z,4.6
2017-08-21T11:30:43.785Z,4.6
2017-08-21T11:31:45.459Z,4.4
2017-08-21T11:32:47.146Z,4.3
2017-08-21T11:33:49.671Z,4.2
2017-08-21T11:34:51.359Z,5.3
2017-08-21T11:35:53.045Z,3.3
2017-08-21T11:36:54.744Z,5.6
2017-08-21T11:37:57.555Z,5.1
2017-08-21T11:39:02.247Z,3.4
2017-08-21T11:40:12.227Z,3.5
2017-08-21T11:41:13.754Z,3.8
2017-08-21T11:42:15.465Z,3.7
2017-08-21T11:43:20.599Z,4.6
2017-08-21T11:44:22.303Z,3.2
2017-08-21T11:45:24.082Z,4.6
2017-08-21T11:46:25.831Z,5.7
2017-08-21T11:47:27.547Z,5.5
2017-08-21T11:48:31.137Z,3.8
2017-08-21T11:49:32.999Z,3.6
2017-08-21T11:50:34.796Z,3.8
2017-08-21T11:51:36.543Z,3.3
2017-08-21T11:52:38.333Z,4.0
2017-08-21T11:53:40.066Z,3.6
2017-08-21T11:54:41.803Z,3.8
2017-08-21T11:55:43.571Z,6.3
2017-08-21T11:56:45.397Z,2.8
2017-08-21T11:57:47.188Z,4.8
2017-08-21T12:00:03.700Z,5.4
2017-08-21T12:01:05.498Z,9.3
2017-08-21T12:02:07.206Z,6.0
2017-08-21T12:03:11.873Z,4.9
2017-08-21T12:04:13.626Z,6.6
2017-08-21T12:06:42.112Z,5.9
2017-08-21T12:07:43.917Z,4.4
2017-08-21T12:08:48.247Z,5.1
2017-08-21T12:09:50.011Z,2.9
2017-08-21T12:10:51.749Z,3.8
2017-08-21T12:11:53.503Z,5.1
2017-08-21T12:12:55.243Z,3.5
2017-08-21T12:13:58.129Z,2.4
2017-08-21T12:15:00.092Z,4.8
2017-08-21T12:16:01.862Z,5.8
2017-08-21T12:17:03.600Z,5.6
2017-08-21T12:18:05.350Z,5.8
2017-08-21T12:19:15.426Z,4.9
2017-08-21T12:20:17.222Z,6.6
2017-08-21T12:21:18.959Z,5.0
2017-08-21T12:22:20.709Z,3.0
2017-08-21T12:23:22.437Z,2.8
2017-08-21T12:24:24.434Z,5.7
2017-08-21T12:25:26.090Z,3.6
2017-08-21T12:26:27.826Z,3.1
2017-08-21T12:27:29.893Z,3.3
2017-08-21T12:28:31.635Z,2.7
2017-08-21T12:29:33.392Z,5.1
2017-08-21T12:30:35.197Z,3.4
2017-08-21T12:31:36.930Z,4.1
2017-08-21T12:32:38.689Z,4.8
2017-08-21T12:33:40.471Z,4.1
2017-08-21T12:34:42.274Z,5.5
2017-08-21T12:35:44.098Z,3.6
2017-08-21T12:36:45.934Z,3.6
2017-08-21T12:37:47.741Z,5.1
2017-08-21T12:38:49.488Z,3.3
2017-08-21T12:39:51.263Z,3.9
2017-08-21T12:40:53.016Z,4.9
2017-08-21T12:41:55.078Z,5.0
2017-08-21T12:42:56.815Z,4.7
2017-08-21T12:43:58.606Z,3.7
2017-08-21T12:45:00.416Z,2.7
2017-08-21T12:46:02.155Z,4.1
2017-08-21T12:47:03.887Z,4.6
2017-08-21T12:48:05.829Z,5.3
2017-08-21T12:49:07.787Z,6.7
2017-08-21T12:50:09.633Z,3.9
2017-08-21T12:51:11.628Z,6.6
2017-08-21T12:52:13.432Z,3.9
2017-08-21T12:53:15.257Z,6.5
2017-08-21T12:54:17.383Z,3.5
2017-08-21T12:55:19.024Z,4.2
2017-08-21T12:56:20.761Z,4.2
2017-08-21T12:57:22.485Z,3.2
2017-08-21T12:58:24.207Z,3.8
2017-08-21T12:59:25.883Z,4.2
2017-08-21T13:00:27.581Z,5.2
2017-08-21T13:01:29.287Z,4.0
2017-08-21T13:02:30.974Z,4.0
2017-08-21T13:03:32.659Z,5.1
2017-08-21T13:04:34.364Z,4.7
2017-08-21T13:05:36.070Z,4.1
2017-08-21T13:06:37.782Z,4.0
2017-08-21T13:07:39.460Z,5.1
2017-08-21T13:08:41.152Z,4.6
2017-08-21T13:09:42.830Z,4.5
2017-08-21T13:10:44.516Z,3.9
2017-08-21T13:11:46.234Z,3.8
2017-08-21T13:12:47.975Z,4.1
2017-08-21T13:13:49.842Z,4.2
2017-08-21T13:14:51.665Z,3.4
2017-08-21T13:15:53.398Z,2.5
2017-08-21T13:16:55.082Z,4.6
2017-08-21T13:17:56.774Z,3.3
2017-08-21T13:18:58.497Z,5.4
2017-08-21T13:20:00.449Z,5.0
2017-08-21T13:21:02.564Z,2.8
2017-08-21T13:22:04.557Z,3.4
2017-08-21T13:23:06.430Z,3.7
2017-08-21T13:24:08.172Z,6.4
2017-08-21T13:25:09.898Z,5.0
2017-08-21T13:26:11.579Z,4.2
2017-08-21T13:27:13.402Z,3.7
2017-08-21T13:28:15.106Z,3.4
2017-08-21T13:29:16.984Z,5.7
2017-08-21T13:30:18.969Z,3.7
2017-08-21T13:31:21.253Z,4.1
2017-08-21T13:32:22.907Z,5.6
2017-08-21T13:33:24.781Z,5.1
2017-08-21T13:34:26.753Z,5.5
2017-08-21T13:35:28.648Z,5.3
2017-08-21T13:36:30.438Z,5.7
2017-08-21T13:37:32.373Z,5.5
2017-08-21T13:38:34.382Z,6.2
2017-08-21T13:39:36.592Z,12.4
2017-08-21T13:40:38.605Z,15.4
2017-08-21T13:41:40.998Z,16.2
2017-08-21T13:42:42.651Z,16.1
2017-08-21T13:43:44.710Z,10.8
2017-08-21T13:44:46.666Z,4.7
2017-08-21T13:45:48.960Z,4.0
2017-08-21T13:46:50.869Z,6.4
2017-08-21T13:47:54.006Z,11.2
2017-08-21T13:48:56.176Z,22.5
2017-08-21T13:49:58.288Z,16.5
2017-08-21T13:51:00.168Z,15.4
2017-08-21T13:52:02.241Z,8.9
2017-08-21T13:53:04.129Z,6.1
2017-08-21T13:54:06.168Z,3.6
2017-08-21T13:55:07.968Z,5.4
2017-08-21T13:56:09.959Z,4.3
2017-08-21T14:01:59.976Z,2.4
2017-08-21T14:03:01.659Z,4.8
2017-08-21T14:04:03.345Z,4.7
2017-08-21T14:05:05.158Z,4.2
2017-08-21T14:06:07.047Z,6.1
2017-08-21T14:07:08.987Z,5.5
2017-08-21T14:08:10.585Z,5.1
2017-08-21T14:09:12.235Z,4.4
2017-08-21T14:10:13.928Z,4.8
2017-08-21T14:11:15.752Z,3.7
2017-08-21T14:12:17.424Z,4.5
2017-08-21T14:13:19.091Z,5.6
2017-08-21T14:14:20.944Z,5.2
2017-08-21T14:15:22.656Z,5.4
2017-08-21T14:16:24.638Z,4.5
2017-08-21T14:17:26.341Z,4.6
2017-08-21T14:18:28.100Z,5.6
2017-08-21T14:19:29.862Z,3.3